sensor_id;sensor_type;location;lat;lon;timestamp;temperature;humidity
66708;DHT22;53622;0.000;0.000;2023-02-11T00:01:45;18.30;41.20
66708;DHT22;53622;0.000;0.000;2023-02-11T00:04:14;18.20;41.10
66708;DHT22;53622;0.000;0.000;2023-02-11T00:06:43;18.20;41.10
66708;DHT22;53622;0.000;0.000;2023-02-11T00:09:12;18.20;41.00
66708;DHT22;53622;0.000;0.000;2023-02-11T00:11:42;18.20;41.10
66708;DHT22;53622;0.000;0.000;2023-02-11T00:14:12;18.20;41.10
66708;DHT22;53622;0.000;0.000;2023-02-11T00:16:42;18.20;41.10
66708;DHT22;53622;0.000;0.000;2023-02-11T00:19:11;18.20;41.10
66708;DHT22;53622;0.000;0.000;2023-02-11T00:21:42;18.20;41.10
66708;DHT22;53622;0.000;0.000;2023-02-11T00:24:11;18.20;41.10
66708;DHT22;53622;0.000;0.000;2023-02-11T00:26:40;18.10;41.10
66708;DHT22;53622;0.000;0.000;2023-02-11T00:29:09;18.20;41.10
66708;DHT22;53622;0.000;0.000;2023-02-11T00:31:41;18.10;41.00
66708;DHT22;53622;0.000;0.000;2023-02-11T00:34:11;18.10;41.10
66708;DHT22;53622;0.000;0.000;2023-02-11T00:36:40;18.10;41.10
66708;DHT22;53622;0.000;0.000;2023-02-11T00:39:09;18.10;41.20
66708;DHT22;53622;0.000;0.000;2023-02-11T00:41:39;18.10;41.10
66708;DHT22;53622;0.000;0.000;2023-02-11T00:44:08;18.00;41.00
66708;DHT22;53622;0.000;0.000;2023-02-11T00:46:37;18.00;41.00
66708;DHT22;53622;0.000;0.000;2023-02-11T00:49:11;18.00;41.10
66708;DHT22;53622;0.000;0.000;2023-02-11T00:51:41;18.00;41.00
66708;DHT22;53622;0.000;0.000;2023-02-11T00:54:10;18.00;41.30
66708;DHT22;53622;0.000;0.000;2023-02-11T00:56:40;18.00;41.10
66708;DHT22;53622;0.000;0.000;2023-02-11T00:59:09;18.00;41.10
66708;DHT22;53622;0.000;0.000;2023-02-11T01:01:38;18.00;41.20
66708;DHT22;53622;0.000;0.000;2023-02-11T01:04:09;18.00;41.10
66708;DHT22;53622;0.000;0.000;2023-02-11T01:06:39;17.90;41.10
66708;DHT22;53622;0.000;0.000;2023-02-11T01:09:09;17.90;41.20
66708;DHT22;53622;0.000;0.000;2023-02-11T01:11:38;17.90;41.20
66708;DHT22;53622;0.000;0.000;2023-02-11T01:14:07;17.90;41.20
66708;DHT22;53622;0.000;0.000;2023-02-11T01:16:37;17.90;41.40
66708;DHT22;53622;0.000;0.000;2023-02-11T01:19:06;17.90;41.30
66708;DHT22;53622;0.000;0.000;2023-02-11T01:21:36;17.80;41.40
66708;DHT22;53622;0.000;0.000;2023-02-11T01:24:07;17.80;41.30
66708;DHT22;53622;0.000;0.000;2023-02-11T01:26:36;17.90;41.30
66708;DHT22;53622;0.000;0.000;2023-02-11T01:29:05;17.80;41.60
66708;DHT22;53622;0.000;0.000;2023-02-11T01:31:36;17.80;41.30
66708;DHT22;53622;0.000;0.000;2023-02-11T01:34:05;17.80;41.30
66708;DHT22;53622;0.000;0.000;2023-02-11T01:36:36;17.80;41.40
66708;DHT22;53622;0.000;0.000;2023-02-11T01:39:07;17.80;41.40
66708;DHT22;53622;0.000;0.000;2023-02-11T01:41:37;17.80;41.40
66708;DHT22;53622;0.000;0.000;2023-02-11T01:44:24;17.70;41.30
66708;DHT22;53622;0.000;0.000;2023-02-11T01:46:54;17.80;41.40
66708;DHT22;53622;0.000;0.000;2023-02-11T01:49:26;17.70;41.40
66708;DHT22;53622;0.000;0.000;2023-02-11T01:51:59;17.70;41.40
66708;DHT22;53622;0.000;0.000;2023-02-11T01:54:32;17.70;41.40
66708;DHT22;53622;0.000;0.000;2023-02-11T01:57:23;17.70;41.40
66708;DHT22;53622;0.000;0.000;2023-02-11T02:00:07;17.70;41.40
66708;DHT22;53622;0.000;0.000;2023-02-11T02:02:45;17.60;41.40
66708;DHT22;53622;0.000;0.000;2023-02-11T02:05:21;17.70;41.50
66708;DHT22;53622;0.000;0.000;2023-02-11T02:07:58;17.60;41.40
66708;DHT22;53622;0.000;0.000;2023-02-11T02:10:30;17.60;41.40
66708;DHT22;53622;0.000;0.000;2023-02-11T02:13:02;17.60;41.40
66708;DHT22;53622;0.000;0.000;2023-02-11T02:15:32;17.60;41.40
66708;DHT22;53622;0.000;0.000;2023-02-11T02:18:35;17.60;41.40
66708;DHT22;53622;0.000;0.000;2023-02-11T02:21:43;17.60;41.40
66708;DHT22;53622;0.000;0.000;2023-02-11T02:24:30;17.60;41.40
66708;DHT22;53622;0.000;0.000;2023-02-11T02:27:22;17.60;41.40
66708;DHT22;53622;0.000;0.000;2023-02-11T02:30:22;17.50;41.40
66708;DHT22;53622;0.000;0.000;2023-02-11T02:33:05;17.50;41.40
66708;DHT22;53622;0.000;0.000;2023-02-11T02:35:55;17.50;41.40
66708;DHT22;53622;0.000;0.000;2023-02-11T02:38:30;17.50;41.40
66708;DHT22;53622;0.000;0.000;2023-02-11T02:41:03;17.50;41.40
66708;DHT22;53622;0.000;0.000;2023-02-11T02:43:40;17.50;41.40
66708;DHT22;53622;0.000;0.000;2023-02-11T02:46:12;17.40;41.40
66708;DHT22;53622;0.000;0.000;2023-02-11T02:48:43;17.40;41.30
66708;DHT22;53622;0.000;0.000;2023-02-11T02:51:26;17.40;41.40
66708;DHT22;53622;0.000;0.000;2023-02-11T02:57:07;17.50;41.40
66708;DHT22;53622;0.000;0.000;2023-02-11T02:59:47;17.40;41.30
66708;DHT22;53622;0.000;0.000;2023-02-11T03:02:25;17.40;41.30
66708;DHT22;53622;0.000;0.000;2023-02-11T03:05:02;17.40;41.30
66708;DHT22;53622;0.000;0.000;2023-02-11T03:07:40;17.40;41.30
66708;DHT22;53622;0.000;0.000;2023-02-11T03:10:14;17.40;41.30
66708;DHT22;53622;0.000;0.000;2023-02-11T03:12:46;17.40;41.40
66708;DHT22;53622;0.000;0.000;2023-02-11T03:15:17;17.40;41.40
66708;DHT22;53622;0.000;0.000;2023-02-11T03:17:51;17.40;41.30
66708;DHT22;53622;0.000;0.000;2023-02-11T03:20:22;17.40;41.40
66708;DHT22;53622;0.000;0.000;2023-02-11T03:22:55;17.40;41.40
66708;DHT22;53622;0.000;0.000;2023-02-11T03:25:29;17.40;41.40
66708;DHT22;53622;0.000;0.000;2023-02-11T03:28:06;17.30;41.30
66708;DHT22;53622;0.000;0.000;2023-02-11T03:30:40;17.30;41.30
66708;DHT22;53622;0.000;0.000;2023-02-11T03:33:15;17.30;41.30
66708;DHT22;53622;0.000;0.000;2023-02-11T03:35:52;17.30;41.30
66708;DHT22;53622;0.000;0.000;2023-02-11T03:38:25;17.30;41.30
66708;DHT22;53622;0.000;0.000;2023-02-11T03:40:57;17.30;41.30
66708;DHT22;53622;0.000;0.000;2023-02-11T03:43:31;17.30;41.40
66708;DHT22;53622;0.000;0.000;2023-02-11T03:46:02;17.30;41.40
66708;DHT22;53622;0.000;0.000;2023-02-11T03:48:35;17.30;41.30
66708;DHT22;53622;0.000;0.000;2023-02-11T03:51:08;17.20;41.30
66708;DHT22;53622;0.000;0.000;2023-02-11T03:53:41;17.20;41.30
66708;DHT22;53622;0.000;0.000;2023-02-11T03:56:15;17.20;41.30
66708;DHT22;53622;0.000;0.000;2023-02-11T03:58:47;17.20;41.40
66708;DHT22;53622;0.000;0.000;2023-02-11T04:01:16;17.20;41.30
66708;DHT22;53622;0.000;0.000;2023-02-11T04:03:46;17.20;41.30
66708;DHT22;53622;0.000;0.000;2023-02-11T04:06:16;17.20;41.30
66708;DHT22;53622;0.000;0.000;2023-02-11T04:08:46;17.20;41.30
66708;DHT22;53622;0.000;0.000;2023-02-11T04:11:15;17.20;41.30
66708;DHT22;53622;0.000;0.000;2023-02-11T04:13:44;17.20;41.30
66708;DHT22;53622;0.000;0.000;2023-02-11T04:16:13;17.10;41.30
66708;DHT22;53622;0.000;0.000;2023-02-11T04:18:43;17.10;41.30
66708;DHT22;53622;0.000;0.000;2023-02-11T04:21:12;17.10;41.30
66708;DHT22;53622;0.000;0.000;2023-02-11T04:23:43;17.10;41.30
66708;DHT22;53622;0.000;0.000;2023-02-11T04:26:12;17.10;41.30
66708;DHT22;53622;0.000;0.000;2023-02-11T04:28:41;17.10;41.40
66708;DHT22;53622;0.000;0.000;2023-02-11T04:31:10;17.10;41.30
66708;DHT22;53622;0.000;0.000;2023-02-11T04:33:40;17.10;41.30
66708;DHT22;53622;0.000;0.000;2023-02-11T04:36:09;17.10;41.30
66708;DHT22;53622;0.000;0.000;2023-02-11T04:38:38;17.10;41.30
66708;DHT22;53622;0.000;0.000;2023-02-11T04:41:09;17.00;41.40
66708;DHT22;53622;0.000;0.000;2023-02-11T04:43:38;17.00;41.40
66708;DHT22;53622;0.000;0.000;2023-02-11T04:46:07;17.00;41.40
66708;DHT22;53622;0.000;0.000;2023-02-11T04:48:36;17.00;41.30
66708;DHT22;53622;0.000;0.000;2023-02-11T04:51:06;17.00;41.30
66708;DHT22;53622;0.000;0.000;2023-02-11T04:53:35;17.00;41.30
66708;DHT22;53622;0.000;0.000;2023-02-11T04:56:04;17.00;41.30
66708;DHT22;53622;0.000;0.000;2023-02-11T04:58:35;17.00;41.30
66708;DHT22;53622;0.000;0.000;2023-02-11T05:01:05;17.00;41.30
66708;DHT22;53622;0.000;0.000;2023-02-11T05:03:35;17.00;41.40
66708;DHT22;53622;0.000;0.000;2023-02-11T05:06:06;17.00;41.30
66708;DHT22;53622;0.000;0.000;2023-02-11T05:08:35;16.90;41.30
66708;DHT22;53622;0.000;0.000;2023-02-11T05:11:05;16.90;41.30
66708;DHT22;53622;0.000;0.000;2023-02-11T05:13:35;16.90;41.30
66708;DHT22;53622;0.000;0.000;2023-02-11T05:16:05;16.90;41.30
66708;DHT22;53622;0.000;0.000;2023-02-11T05:18:36;16.90;41.30
66708;DHT22;53622;0.000;0.000;2023-02-11T05:21:06;16.90;41.30
66708;DHT22;53622;0.000;0.000;2023-02-11T05:23:36;16.90;41.30
66708;DHT22;53622;0.000;0.000;2023-02-11T05:26:07;16.90;41.30
66708;DHT22;53622;0.000;0.000;2023-02-11T05:28:38;16.90;41.40
66708;DHT22;53622;0.000;0.000;2023-02-11T05:31:07;16.90;41.30
66708;DHT22;53622;0.000;0.000;2023-02-11T05:33:37;16.90;41.30
66708;DHT22;53622;0.000;0.000;2023-02-11T05:36:08;16.90;41.30
66708;DHT22;53622;0.000;0.000;2023-02-11T05:38:38;16.90;41.30
66708;DHT22;53622;0.000;0.000;2023-02-11T05:41:10;16.90;41.30
66708;DHT22;53622;0.000;0.000;2023-02-11T05:43:41;16.90;41.30
66708;DHT22;53622;0.000;0.000;2023-02-11T05:46:10;16.80;41.20
66708;DHT22;53622;0.000;0.000;2023-02-11T05:48:39;16.80;41.30
66708;DHT22;53622;0.000;0.000;2023-02-11T05:51:09;16.80;41.30
66708;DHT22;53622;0.000;0.000;2023-02-11T05:53:38;16.80;41.40
66708;DHT22;53622;0.000;0.000;2023-02-11T05:56:07;16.80;41.30
66708;DHT22;53622;0.000;0.000;2023-02-11T05:58:37;16.80;41.40
66708;DHT22;53622;0.000;0.000;2023-02-11T06:01:08;16.80;41.30
66708;DHT22;53622;0.000;0.000;2023-02-11T06:03:37;16.80;41.30
66708;DHT22;53622;0.000;0.000;2023-02-11T06:06:09;16.80;41.30
66708;DHT22;53622;0.000;0.000;2023-02-11T06:08:39;16.80;41.50
66708;DHT22;53622;0.000;0.000;2023-02-11T06:11:08;16.80;41.20
66708;DHT22;53622;0.000;0.000;2023-02-11T06:13:37;16.80;41.30
66708;DHT22;53622;0.000;0.000;2023-02-11T06:16:08;16.80;41.40
66708;DHT22;53622;0.000;0.000;2023-02-11T06:18:38;16.80;41.50
66708;DHT22;53622;0.000;0.000;2023-02-11T06:21:08;16.90;41.40
66708;DHT22;53622;0.000;0.000;2023-02-11T06:23:37;16.90;41.30
66708;DHT22;53622;0.000;0.000;2023-02-11T06:26:14;16.80;41.40
66708;DHT22;53622;0.000;0.000;2023-02-11T06:28:44;16.80;41.40
66708;DHT22;53622;0.000;0.000;2023-02-11T06:31:15;16.80;41.50
66708;DHT22;53622;0.000;0.000;2023-02-11T06:33:44;16.80;41.50
66708;DHT22;53622;0.000;0.000;2023-02-11T06:36:16;16.80;41.50
66708;DHT22;53622;0.000;0.000;2023-02-11T06:38:46;16.80;41.50
66708;DHT22;53622;0.000;0.000;2023-02-11T06:41:16;16.80;41.60
66708;DHT22;53622;0.000;0.000;2023-02-11T06:43:47;16.80;41.90
66708;DHT22;53622;0.000;0.000;2023-02-11T06:46:18;16.80;41.70
66708;DHT22;53622;0.000;0.000;2023-02-11T06:48:47;16.80;41.70
66708;DHT22;53622;0.000;0.000;2023-02-11T06:51:17;16.80;41.70
66708;DHT22;53622;0.000;0.000;2023-02-11T06:53:46;16.80;41.80
66708;DHT22;53622;0.000;0.000;2023-02-11T06:56:18;16.80;41.80
66708;DHT22;53622;0.000;0.000;2023-02-11T06:58:50;16.80;41.80
66708;DHT22;53622;0.000;0.000;2023-02-11T07:01:22;16.80;41.80
66708;DHT22;53622;0.000;0.000;2023-02-11T07:03:52;16.80;41.70
66708;DHT22;53622;0.000;0.000;2023-02-11T07:06:23;16.70;41.20
66708;DHT22;53622;0.000;0.000;2023-02-11T07:08:55;16.60;40.50
66708;DHT22;53622;0.000;0.000;2023-02-11T07:11:25;16.50;40.10
66708;DHT22;53622;0.000;0.000;2023-02-11T07:13:58;16.50;40.70
66708;DHT22;53622;0.000;0.000;2023-02-11T07:16:30;16.50;41.10
66708;DHT22;53622;0.000;0.000;2023-02-11T07:19:00;16.50;41.90
66708;DHT22;53622;0.000;0.000;2023-02-11T07:21:29;16.60;42.20
66708;DHT22;53622;0.000;0.000;2023-02-11T07:23:58;16.60;42.80
66708;DHT22;53622;0.000;0.000;2023-02-11T07:26:28;16.60;43.10
66708;DHT22;53622;0.000;0.000;2023-02-11T07:28:57;16.70;43.40
66708;DHT22;53622;0.000;0.000;2023-02-11T07:31:29;16.70;43.50
66708;DHT22;53622;0.000;0.000;2023-02-11T07:34:00;16.70;43.70
66708;DHT22;53622;0.000;0.000;2023-02-11T07:36:30;16.70;43.60
66708;DHT22;53622;0.000;0.000;2023-02-11T07:39:00;16.80;43.30
66708;DHT22;53622;0.000;0.000;2023-02-11T07:41:29;16.90;43.50
66708;DHT22;53622;0.000;0.000;2023-02-11T07:44:01;17.10;43.30
66708;DHT22;53622;0.000;0.000;2023-02-11T07:46:32;17.20;43.10
66708;DHT22;53622;0.000;0.000;2023-02-11T07:49:02;17.40;43.00
66708;DHT22;53622;0.000;0.000;2023-02-11T07:51:31;17.50;42.60
66708;DHT22;53622;0.000;0.000;2023-02-11T07:54:01;17.60;42.50
66708;DHT22;53622;0.000;0.000;2023-02-11T07:56:32;17.70;42.50
66708;DHT22;53622;0.000;0.000;2023-02-11T07:59:02;17.90;42.30
66708;DHT22;53622;0.000;0.000;2023-02-11T08:01:33;18.00;42.40
66708;DHT22;53622;0.000;0.000;2023-02-11T08:04:03;18.20;42.40
66708;DHT22;53622;0.000;0.000;2023-02-11T08:06:33;18.30;42.30
66708;DHT22;53622;0.000;0.000;2023-02-11T08:09:04;18.30;42.10
66708;DHT22;53622;0.000;0.000;2023-02-11T08:11:34;18.50;42.20
66708;DHT22;53622;0.000;0.000;2023-02-11T08:14:03;18.60;42.00
66708;DHT22;53622;0.000;0.000;2023-02-11T08:16:35;18.60;41.90
66708;DHT22;53622;0.000;0.000;2023-02-11T08:19:10;18.70;42.40
66708;DHT22;53622;0.000;0.000;2023-02-11T08:21:40;18.70;41.80
66708;DHT22;53622;0.000;0.000;2023-02-11T08:24:09;18.80;41.70
66708;DHT22;53622;0.000;0.000;2023-02-11T08:26:39;18.90;41.70
66708;DHT22;53622;0.000;0.000;2023-02-11T08:29:10;18.90;41.60
66708;DHT22;53622;0.000;0.000;2023-02-11T08:31:44;18.90;41.50
66708;DHT22;53622;0.000;0.000;2023-02-11T08:34:14;18.90;41.40
66708;DHT22;53622;0.000;0.000;2023-02-11T08:36:46;18.90;41.60
66708;DHT22;53622;0.000;0.000;2023-02-11T08:39:18;18.90;41.30
66708;DHT22;53622;0.000;0.000;2023-02-11T08:41:49;18.90;41.60
66708;DHT22;53622;0.000;0.000;2023-02-11T08:44:19;18.90;41.30
66708;DHT22;53622;0.000;0.000;2023-02-11T08:46:51;18.90;41.50
66708;DHT22;53622;0.000;0.000;2023-02-11T08:49:21;18.90;41.30
66708;DHT22;53622;0.000;0.000;2023-02-11T08:51:50;19.00;41.40
66708;DHT22;53622;0.000;0.000;2023-02-11T08:54:20;19.00;41.20
66708;DHT22;53622;0.000;0.000;2023-02-11T08:56:50;19.00;41.80
66708;DHT22;53622;0.000;0.000;2023-02-11T08:59:20;19.00;41.10
66708;DHT22;53622;0.000;0.000;2023-02-11T09:01:50;19.10;41.10
66708;DHT22;53622;0.000;0.000;2023-02-11T09:04:20;19.20;40.90
66708;DHT22;53622;0.000;0.000;2023-02-11T09:06:49;19.20;40.70
66708;DHT22;53622;0.000;0.000;2023-02-11T09:09:19;19.20;40.50
66708;DHT22;53622;0.000;0.000;2023-02-11T09:11:48;19.20;40.50
66708;DHT22;53622;0.000;0.000;2023-02-11T09:14:18;19.30;40.30
66708;DHT22;53622;0.000;0.000;2023-02-11T09:16:50;19.30;40.30
66708;DHT22;53622;0.000;0.000;2023-02-11T09:19:20;19.30;40.00
66708;DHT22;53622;0.000;0.000;2023-02-11T09:21:49;19.30;40.20
66708;DHT22;53622;0.000;0.000;2023-02-11T09:24:19;19.30;40.20
66708;DHT22;53622;0.000;0.000;2023-02-11T09:26:48;19.30;40.30
66708;DHT22;53622;0.000;0.000;2023-02-11T09:29:17;19.30;40.30
66708;DHT22;53622;0.000;0.000;2023-02-11T09:31:47;19.30;40.30
66708;DHT22;53622;0.000;0.000;2023-02-11T09:34:18;19.30;40.30
66708;DHT22;53622;0.000;0.000;2023-02-11T09:36:47;19.30;40.40
66708;DHT22;53622;0.000;0.000;2023-02-11T09:39:17;19.20;40.30
66708;DHT22;53622;0.000;0.000;2023-02-11T09:42:03;19.20;40.20
66708;DHT22;53622;0.000;0.000;2023-02-11T09:44:37;19.20;40.30
66708;DHT22;53622;0.000;0.000;2023-02-11T09:47:19;19.20;40.30
66708;DHT22;53622;0.000;0.000;2023-02-11T09:49:57;19.20;40.40
66708;DHT22;53622;0.000;0.000;2023-02-11T09:52:34;19.20;40.50
66708;DHT22;53622;0.000;0.000;2023-02-11T09:55:16;19.10;40.40
66708;DHT22;53622;0.000;0.000;2023-02-11T09:57:46;19.10;40.60
66708;DHT22;53622;0.000;0.000;2023-02-11T10:00:19;19.10;40.40
66708;DHT22;53622;0.000;0.000;2023-02-11T10:03:02;19.10;40.50
66708;DHT22;53622;0.000;0.000;2023-02-11T10:08:31;19.00;39.60
66708;DHT22;53622;0.000;0.000;2023-02-11T10:11:07;18.90;39.30
66708;DHT22;53622;0.000;0.000;2023-02-11T10:14:03;18.70;38.80
66708;DHT22;53622;0.000;0.000;2023-02-11T10:16:50;18.70;38.50
66708;DHT22;53622;0.000;0.000;2023-02-11T10:19:57;18.60;38.60
66708;DHT22;53622;0.000;0.000;2023-02-11T10:22:35;18.60;38.90
66708;DHT22;53622;0.000;0.000;2023-02-11T10:25:17;18.60;39.00
66708;DHT22;53622;0.000;0.000;2023-02-11T10:27:48;18.60;39.30
66708;DHT22;53622;0.000;0.000;2023-02-11T10:30:28;18.70;39.50
66708;DHT22;53622;0.000;0.000;2023-02-11T10:33:02;18.60;39.60
66708;DHT22;53622;0.000;0.000;2023-02-11T10:35:32;18.60;39.70
66708;DHT22;53622;0.000;0.000;2023-02-11T10:38:03;18.70;39.80
66708;DHT22;53622;0.000;0.000;2023-02-11T10:40:32;18.60;39.40
66708;DHT22;53622;0.000;0.000;2023-02-11T10:43:03;18.50;39.70
66708;DHT22;53622;0.000;0.000;2023-02-11T10:45:36;18.60;39.60
66708;DHT22;53622;0.000;0.000;2023-02-11T10:48:39;18.60;39.70
66708;DHT22;53622;0.000;0.000;2023-02-11T10:51:16;18.70;40.40
66708;DHT22;53622;0.000;0.000;2023-02-11T10:53:48;18.70;40.40
66708;DHT22;53622;0.000;0.000;2023-02-11T10:56:22;18.80;40.60
66708;DHT22;53622;0.000;0.000;2023-02-11T10:58:56;18.90;40.40
66708;DHT22;53622;0.000;0.000;2023-02-11T11:01:42;19.00;40.00
66708;DHT22;53622;0.000;0.000;2023-02-11T11:04:33;19.00;40.20
66708;DHT22;53622;0.000;0.000;2023-02-11T11:07:18;19.10;40.30
66708;DHT22;53622;0.000;0.000;2023-02-11T11:09:52;19.20;40.20
66708;DHT22;53622;0.000;0.000;2023-02-11T11:12:32;19.20;40.50
66708;DHT22;53622;0.000;0.000;2023-02-11T11:15:15;19.30;41.10
66708;DHT22;53622;0.000;0.000;2023-02-11T11:17:45;19.40;41.20
66708;DHT22;53622;0.000;0.000;2023-02-11T11:20:19;19.50;40.80
66708;DHT22;53622;0.000;0.000;2023-02-11T11:22:51;19.50;41.10
66708;DHT22;53622;0.000;0.000;2023-02-11T11:25:27;19.60;41.10
66708;DHT22;53622;0.000;0.000;2023-02-11T11:27:59;19.70;40.70
66708;DHT22;53622;0.000;0.000;2023-02-11T11:30:33;19.80;40.80
66708;DHT22;53622;0.000;0.000;2023-02-11T11:33:18;19.80;40.80
66708;DHT22;53622;0.000;0.000;2023-02-11T11:35:59;19.90;40.70
66708;DHT22;53622;0.000;0.000;2023-02-11T11:38:29;20.00;40.60
66708;DHT22;53622;0.000;0.000;2023-02-11T11:41:15;20.10;40.50
66708;DHT22;53622;0.000;0.000;2023-02-11T11:43:59;20.20;40.40
66708;DHT22;53622;0.000;0.000;2023-02-11T11:46:32;20.30;40.50
66708;DHT22;53622;0.000;0.000;2023-02-11T11:49:12;20.30;40.30
66708;DHT22;53622;0.000;0.000;2023-02-11T11:51:46;20.40;40.40
66708;DHT22;53622;0.000;0.000;2023-02-11T11:54:19;20.50;40.70
66708;DHT22;53622;0.000;0.000;2023-02-11T11:56:55;20.50;40.80
66708;DHT22;53622;0.000;0.000;2023-02-11T11:59:27;20.50;40.60
66708;DHT22;53622;0.000;0.000;2023-02-11T12:02:17;20.60;40.90
66708;DHT22;53622;0.000;0.000;2023-02-11T12:05:00;20.60;41.00
66708;DHT22;53622;0.000;0.000;2023-02-11T12:07:39;20.70;40.80
66708;DHT22;53622;0.000;0.000;2023-02-11T12:10:36;20.70;40.60
66708;DHT22;53622;0.000;0.000;2023-02-11T12:13:17;20.70;40.40
66708;DHT22;53622;0.000;0.000;2023-02-11T12:15:56;20.70;40.40
66708;DHT22;53622;0.000;0.000;2023-02-11T12:18:36;20.80;40.40
66708;DHT22;53622;0.000;0.000;2023-02-11T12:21:32;20.80;40.40
66708;DHT22;53622;0.000;0.000;2023-02-11T12:24:14;20.80;40.40
66708;DHT22;53622;0.000;0.000;2023-02-11T12:26:50;20.80;40.30
66708;DHT22;53622;0.000;0.000;2023-02-11T12:29:29;20.80;40.40
66708;DHT22;53622;0.000;0.000;2023-02-11T12:32:13;20.80;40.60
66708;DHT22;53622;0.000;0.000;2023-02-11T12:35:01;20.80;40.70
66708;DHT22;53622;0.000;0.000;2023-02-11T12:37:44;20.80;40.70
66708;DHT22;53622;0.000;0.000;2023-02-11T12:40:24;20.80;41.20
66708;DHT22;53622;0.000;0.000;2023-02-11T12:43:03;20.70;41.70
66708;DHT22;53622;0.000;0.000;2023-02-11T12:46:01;20.80;43.20
66708;DHT22;53622;0.000;0.000;2023-02-11T12:48:42;20.70;44.50
66708;DHT22;53622;0.000;0.000;2023-02-11T12:51:25;20.60;45.20
66708;DHT22;53622;0.000;0.000;2023-02-11T12:54:14;20.60;45.70
66708;DHT22;53622;0.000;0.000;2023-02-11T12:56:51;20.60;45.80
66708;DHT22;53622;0.000;0.000;2023-02-11T12:59:37;20.60;46.20
66708;DHT22;53622;0.000;0.000;2023-02-11T13:02:23;20.60;46.00
66708;DHT22;53622;0.000;0.000;2023-02-11T13:04:56;20.60;46.40
66708;DHT22;53622;0.000;0.000;2023-02-11T13:07:33;20.70;45.60
66708;DHT22;53622;0.000;0.000;2023-02-11T13:10:15;20.70;46.20
66708;DHT22;53622;0.000;0.000;2023-02-11T13:12:47;20.70;44.80
66708;DHT22;53622;0.000;0.000;2023-02-11T13:15:36;20.80;44.90
66708;DHT22;53622;0.000;0.000;2023-02-11T13:18:16;20.80;45.50
66708;DHT22;53622;0.000;0.000;2023-02-11T13:20:52;20.90;44.50
66708;DHT22;53622;0.000;0.000;2023-02-11T13:23:33;21.00;44.70
66708;DHT22;53622;0.000;0.000;2023-02-11T13:26:08;21.00;45.20
66708;DHT22;53622;0.000;0.000;2023-02-11T13:28:44;21.10;43.70
66708;DHT22;53622;0.000;0.000;2023-02-11T13:31:15;21.10;43.00
66708;DHT22;53622;0.000;0.000;2023-02-11T13:33:48;21.10;43.20
66708;DHT22;53622;0.000;0.000;2023-02-11T13:36:23;21.20;43.00
66708;DHT22;53622;0.000;0.000;2023-02-11T13:39:01;21.30;42.50
66708;DHT22;53622;0.000;0.000;2023-02-11T13:41:33;21.30;42.60
66708;DHT22;53622;0.000;0.000;2023-02-11T13:44:22;21.30;42.50
66708;DHT22;53622;0.000;0.000;2023-02-11T13:46:56;21.40;42.50
66708;DHT22;53622;0.000;0.000;2023-02-11T13:49:31;21.30;42.60
66708;DHT22;53622;0.000;0.000;2023-02-11T13:52:04;21.40;42.60
66708;DHT22;53622;0.000;0.000;2023-02-11T13:54:36;21.40;42.60
66708;DHT22;53622;0.000;0.000;2023-02-11T13:57:29;21.40;42.80
66708;DHT22;53622;0.000;0.000;2023-02-11T14:00:00;21.40;42.70
66708;DHT22;53622;0.000;0.000;2023-02-11T14:02:35;21.30;42.60
66708;DHT22;53622;0.000;0.000;2023-02-11T14:05:32;21.30;42.90
66708;DHT22;53622;0.000;0.000;2023-02-11T14:08:22;21.30;42.40
66708;DHT22;53622;0.000;0.000;2023-02-11T14:11:43;21.30;42.40
66708;DHT22;53622;0.000;0.000;2023-02-11T14:14:22;21.30;42.30
66708;DHT22;53622;0.000;0.000;2023-02-11T14:17:31;21.30;43.00
66708;DHT22;53622;0.000;0.000;2023-02-11T14:20:03;21.20;43.40
66708;DHT22;53622;0.000;0.000;2023-02-11T14:22:44;21.10;42.40
66708;DHT22;53622;0.000;0.000;2023-02-11T14:25:19;21.10;43.70
66708;DHT22;53622;0.000;0.000;2023-02-11T14:27:52;21.00;43.10
66708;DHT22;53622;0.000;0.000;2023-02-11T14:30:44;20.90;43.90
66708;DHT22;53622;0.000;0.000;2023-02-11T14:36:53;20.80;44.90
66708;DHT22;53622;0.000;0.000;2023-02-11T14:39:36;20.70;45.10
66708;DHT22;53622;0.000;0.000;2023-02-11T14:42:16;20.60;45.00
66708;DHT22;53622;0.000;0.000;2023-02-11T14:44:48;20.60;45.10
66708;DHT22;53622;0.000;0.000;2023-02-11T14:47:22;20.50;45.20
66708;DHT22;53622;0.000;0.000;2023-02-11T14:49:53;20.40;45.50
66708;DHT22;53622;0.000;0.000;2023-02-11T14:52:26;20.40;45.40
66708;DHT22;53622;0.000;0.000;2023-02-11T14:55:22;20.40;44.90
66708;DHT22;53622;0.000;0.000;2023-02-11T14:58:10;20.30;45.00
66708;DHT22;53622;0.000;0.000;2023-02-11T15:00:51;20.30;44.80
66708;DHT22;53622;0.000;0.000;2023-02-11T15:03:31;20.30;44.70
66708;DHT22;53622;0.000;0.000;2023-02-11T15:06:04;20.30;45.00
66708;DHT22;53622;0.000;0.000;2023-02-11T15:08:36;20.30;44.30
66708;DHT22;53622;0.000;0.000;2023-02-11T15:11:12;20.20;43.10
66708;DHT22;53622;0.000;0.000;2023-02-11T15:13:43;20.10;42.60
66708;DHT22;53622;0.000;0.000;2023-02-11T15:16:18;20.10;42.50
66708;DHT22;53622;0.000;0.000;2023-02-11T15:18:50;20.10;42.90
66708;DHT22;53622;0.000;0.000;2023-02-11T15:21:22;20.10;43.10
66708;DHT22;53622;0.000;0.000;2023-02-11T15:23:57;20.20;42.20
66708;DHT22;53622;0.000;0.000;2023-02-11T15:26:29;20.30;42.20
66708;DHT22;53622;0.000;0.000;2023-02-11T15:28:59;20.30;42.00
66708;DHT22;53622;0.000;0.000;2023-02-11T15:31:28;20.30;41.60
66708;DHT22;53622;0.000;0.000;2023-02-11T15:34:06;20.30;41.40
66708;DHT22;53622;0.000;0.000;2023-02-11T15:36:37;20.30;41.30
66708;DHT22;53622;0.000;0.000;2023-02-11T15:39:30;20.30;41.00
66708;DHT22;53622;0.000;0.000;2023-02-11T15:42:17;20.30;41.00
66708;DHT22;53622;0.000;0.000;2023-02-11T15:44:48;20.40;40.90
66708;DHT22;53622;0.000;0.000;2023-02-11T15:47:23;20.30;40.60
66708;DHT22;53622;0.000;0.000;2023-02-11T15:49:53;20.30;40.50
66708;DHT22;53622;0.000;0.000;2023-02-11T15:52:24;20.30;41.40
66708;DHT22;53622;0.000;0.000;2023-02-11T15:54:55;20.40;41.40
66708;DHT22;53622;0.000;0.000;2023-02-11T15:57:28;20.40;41.70
66708;DHT22;53622;0.000;0.000;2023-02-11T15:59:58;20.50;42.40
66708;DHT22;53622;0.000;0.000;2023-02-11T16:02:38;20.50;42.40
66708;DHT22;53622;0.000;0.000;2023-02-11T16:05:25;20.60;42.60
66708;DHT22;53622;0.000;0.000;2023-02-11T16:07:55;20.60;41.80
66708;DHT22;53622;0.000;0.000;2023-02-11T16:10:27;20.70;42.20
66708;DHT22;53622;0.000;0.000;2023-02-11T16:13:17;20.80;40.80
66708;DHT22;53622;0.000;0.000;2023-02-11T16:15:49;20.70;40.20
66708;DHT22;53622;0.000;0.000;2023-02-11T16:18:28;20.50;40.70
66708;DHT22;53622;0.000;0.000;2023-02-11T16:21:10;20.40;44.60
66708;DHT22;53622;0.000;0.000;2023-02-11T16:23:49;20.40;45.50
66708;DHT22;53622;0.000;0.000;2023-02-11T16:26:25;20.30;44.80
66708;DHT22;53622;0.000;0.000;2023-02-11T16:29:09;20.30;44.30
66708;DHT22;53622;0.000;0.000;2023-02-11T16:31:40;20.20;44.00
66708;DHT22;53622;0.000;0.000;2023-02-11T16:34:13;20.10;43.60
66708;DHT22;53622;0.000;0.000;2023-02-11T16:36:43;20.00;43.40
66708;DHT22;53622;0.000;0.000;2023-02-11T16:39:13;20.00;43.20
66708;DHT22;53622;0.000;0.000;2023-02-11T16:41:43;20.00;43.20